Time;durP1;ratioP1;P1;durP2;ratioP2;P2;SDS_P1;SDS_P2;PMS_P1;PMS_P2;Temp;Humidity;BMP_temperature;BMP_pressure;BME280_temperature;BME280_humidity;BME280_pressure;Samples;Min_cycle;Max_cycle;Signal;HPM_P1;HPM_P2
2022/11/27 00:00:46;;;;;;;3.28;0.80;;;;;;;;;;5010944;28;20053;-61
2022/11/27 00:03:12;;;;;;;3.75;0.73;;;;;;;;;;5012270;28;20154;-61
2022/11/27 00:05:39;;;;;;;2.00;0.45;;;;;;;;;;5013095;28;20083;-64
2022/11/27 00:08:05;;;;;;;4.45;0.90;;;;;;;;;;5014198;28;20049;-62
2022/11/27 00:10:32;;;;;;;2.25;0.70;;;;;;;;;;5012201;28;20133;-63
2022/11/27 00:12:58;;;;;;;3.45;0.60;;;;;;;;;;5013674;28;20080;-64
2022/11/27 00:15:25;;;;;;;4.57;0.80;;;;;;;;;;5013758;28;20749;-62
2022/11/27 00:17:52;;;;;;;2.55;0.70;;;;;;;;;;5012432;28;20044;-63
2022/11/27 00:20:18;;;;;;;2.58;0.82;;;;;;;;;;5012122;28;20525;-62
2022/11/27 00:22:45;;;;;;;2.53;0.73;;;;;;;;;;5012526;28;20041;-63
2022/11/27 00:25:11;;;;;;;2.25;0.70;;;;;;;;;;5011782;28;20144;-62
2022/11/27 00:27:38;;;;;;;2.58;0.70;;;;;;;;;;5012378;28;20044;-64
2022/11/27 00:30:05;;;;;;;3.17;0.80;;;;;;;;;;5011734;28;20068;-63
2022/11/27 00:32:31;;;;;;;2.03;0.60;;;;;;;;;;5010203;28;20042;-63
2022/11/27 00:34:58;;;;;;;4.30;0.60;;;;;;;;;;5011128;28;20481;-64
2022/11/27 00:37:25;;;;;;;2.67;0.63;;;;;;;;;;5012093;28;20125;-63
2022/11/27 00:39:51;;;;;;;2.88;0.70;;;;;;;;;;5011032;28;20140;-63
2022/11/27 00:42:18;;;;;;;2.40;0.70;;;;;;;;;;5009632;28;20041;-64
2022/11/27 00:44:44;;;;;;;2.50;0.65;;;;;;;;;;5012669;28;20494;-61
2022/11/27 00:47:11;;;;;;;5.43;0.70;;;;;;;;;;5012753;28;20117;-63
2022/11/27 00:49:38;;;;;;;4.60;0.73;;;;;;;;;;5011537;28;20052;-64
2022/11/27 00:52:05;;;;;;;2.38;0.68;;;;;;;;;;5010813;28;20054;-64
2022/11/27 00:54:31;;;;;;;3.05;0.57;;;;;;;;;;5012863;28;20123;-65
2022/11/27 00:56:58;;;;;;;4.20;0.77;;;;;;;;;;5011088;28;20118;-64
2022/11/27 00:59:25;;;;;;;2.83;0.73;;;;;;;;;;5020615;28;20046;-64
2022/11/27 01:01:51;;;;;;;1.77;0.60;;;;;;;;;;5013074;28;20056;-64
2022/11/27 01:04:18;;;;;;;4.07;1.00;;;;;;;;;;5013504;28;20084;-62
2022/11/27 01:06:45;;;;;;;3.35;0.80;;;;;;;;;;5009478;28;20050;-67
2022/11/27 01:09:12;;;;;;;2.25;0.80;;;;;;;;;;5021329;28;20042;-62
2022/11/27 01:11:39;;;;;;;3.15;1.05;;;;;;;;;;5011813;28;20037;-62
2022/11/27 01:14:08;;;;;;;9.00;1.42;;;;;;;;;;5012916;28;20060;-63
2022/11/27 01:16:36;;;;;;;2.05;0.70;;;;;;;;;;5012328;28;20883;-64
2022/11/27 01:19:03;;;;;;;1.95;0.60;;;;;;;;;;5011937;28;20038;-62
2022/11/27 01:21:31;;;;;;;5.90;0.88;;;;;;;;;;5011701;28;20053;-62
2022/11/27 01:23:58;;;;;;;2.72;0.85;;;;;;;;;;5010558;28;20052;-64
2022/11/27 01:26:24;;;;;;;1.48;0.60;;;;;;;;;;5013586;28;20594;-63
2022/11/27 01:28:51;;;;;;;2.60;0.60;;;;;;;;;;5010558;28;20034;-63
2022/11/27 01:31:19;;;;;;;2.20;0.70;;;;;;;;;;5014340;28;20095;-65
2022/11/27 01:33:46;;;;;;;6.75;0.68;;;;;;;;;;5013118;28;20038;-64
2022/11/27 01:36:14;;;;;;;2.15;0.60;;;;;;;;;;5011908;28;20134;-66
2022/11/27 01:38:41;;;;;;;1.25;0.50;;;;;;;;;;5010949;28;20056;-63
2022/11/27 01:41:12;;;;;;;2.08;0.50;;;;;;;;;;5010037;28;20773;-64
2022/11/27 01:43:44;;;;;;;7.43;0.65;;;;;;;;;;5010974;28;20053;-62
2022/11/27 01:46:16;;;;;;;7.28;0.70;;;;;;;;;;5013609;28;20037;-64
2022/11/27 01:48:43;;;;;;;1.15;0.40;;;;;;;;;;5009784;28;20125;-65
2022/11/27 01:51:09;;;;;;;1.45;0.50;;;;;;;;;;5013559;28;20037;-61
2022/11/27 01:53:36;;;;;;;1.45;0.43;;;;;;;;;;5010272;28;20100;-62
2022/11/27 01:56:04;;;;;;;1.70;0.60;;;;;;;;;;5012381;28;20043;-63
2022/11/27 01:58:31;;;;;;;2.00;0.60;;;;;;;;;;5013063;28;20468;-63
2022/11/27 02:00:58;;;;;;;1.42;0.60;;;;;;;;;;5011665;28;20120;-64
2022/11/27 02:03:24;;;;;;;1.90;0.60;;;;;;;;;;5009121;28;20037;-63
2022/11/27 02:05:51;;;;;;;5.50;0.70;;;;;;;;;;5026547;28;20213;-66
2022/11/27 02:08:18;;;;;;;2.22;0.50;;;;;;;;;;5013179;28;20153;-63
2022/11/27 02:10:48;;;;;;;3.85;0.60;;;;;;;;;;5009534;28;20425;-65
2022/11/27 02:13:28;;;;;;;1.60;0.50;;;;;;;;;;5027632;28;20038;-63
2022/11/27 02:15:55;;;;;;;1.17;0.40;;;;;;;;;;5009961;28;20037;-62
2022/11/27 02:18:30;;;;;;;2.10;0.70;;;;;;;;;;5011256;28;20061;-64
2022/11/27 02:21:10;;;;;;;2.72;0.90;;;;;;;;;;5011637;28;20046;-67
2022/11/27 02:23:36;;;;;;;3.72;1.00;;;;;;;;;;5008548;28;20037;-62
2022/11/27 02:26:13;;;;;;;3.03;0.70;;;;;;;;;;5011612;28;20232;-64
2022/11/27 02:28:58;;;;;;;3.95;0.80;;;;;;;;;;5014543;28;20076;-64
2022/11/27 02:31:34;;;;;;;5.28;0.80;;;;;;;;;;5012774;28;20045;-62
2022/11/27 02:34:08;;;;;;;2.75;0.65;;;;;;;;;;5017150;28;20161;-65
2022/11/27 02:36:36;;;;;;;2.90;0.90;;;;;;;;;;5014305;28;20088;-67
2022/11/27 02:39:05;;;;;;;3.85;0.80;;;;;;;;;;5015837;28;20546;-64
2022/11/27 02:41:38;;;;;;;2.78;0.70;;;;;;;;;;5014210;28;20060;-63
2022/11/27 02:44:08;;;;;;;2.53;0.60;;;;;;;;;;5014057;28;20038;-63
2022/11/27 02:46:35;;;;;;;1.75;0.70;;;;;;;;;;5016458;28;20034;-64
2022/11/27 02:49:03;;;;;;;4.75;0.70;;;;;;;;;;5024151;28;20111;-64
2022/11/27 02:51:35;;;;;;;2.65;0.80;;;;;;;;;;5012819;28;20758;-69
2022/11/27 02:54:04;;;;;;;4.45;0.98;;;;;;;;;;5030608;28;20041;-62
2022/11/27 02:56:31;;;;;;;3.92;0.90;;;;;;;;;;5028478;28;21928;-62
2022/11/27 02:59:00;;;;;;;4.50;1.10;;;;;;;;;;5015109;28;20049;-64
2022/11/27 03:01:29;;;;;;;4.68;0.90;;;;;;;;;;5013648;28;20558;-64
2022/11/27 03:03:57;;;;;;;5.13;0.90;;;;;;;;;;5015168;28;20117;-63
2022/11/27 03:06:27;;;;;;;4.22;1.00;;;;;;;;;;5012874;28;20076;-64
2022/11/27 03:08:56;;;;;;;2.83;0.98;;;;;;;;;;5021926;28;20086;-66
2022/11/27 03:11:23;;;;;;;5.18;1.10;;;;;;;;;;5012599;28;20510;-66
2022/11/27 03:13:54;;;;;;;3.28;1.13;;;;;;;;;;5014477;28;20151;-63
2022/11/27 03:16:21;;;;;;;4.55;1.35;;;;;;;;;;5028340;28;20046;-62
2022/11/27 03:18:57;;;;;;;8.48;1.30;;;;;;;;;;5014903;28;20109;-62
2022/11/27 03:21:23;;;;;;;3.22;0.90;;;;;;;;;;5012770;28;20098;-63
2022/11/27 03:23:50;;;;;;;9.18;1.27;;;;;;;;;;5022689;28;20033;-65
2022/11/27 03:26:16;;;;;;;4.55;1.30;;;;;;;;;;5012510;28;21722;-62
2022/11/27 03:28:44;;;;;;;4.53;1.45;;;;;;;;;;5013449;28;20029;-65
2022/11/27 03:31:10;;;;;;;6.75;2.05;;;;;;;;;;5012218;28;20059;-64
2022/11/27 03:33:37;;;;;;;10.48;2.03;;;;;;;;;;5028202;28;20045;-64
2022/11/27 03:36:11;;;;;;;5.45;1.30;;;;;;;;;;5012125;28;20239;-64
2022/11/27 03:38:37;;;;;;;3.38;1.25;;;;;;;;;;5016050;28;20441;-63
2022/11/27 03:41:12;;;;;;;9.68;1.67;;;;;;;;;;5015646;28;20060;-65
2022/11/27 03:43:43;;;;;;;7.43;1.70;;;;;;;;;;5028966;28;20042;-63
2022/11/27 03:46:13;;;;;;;3.95;1.33;;;;;;;;;;5011244;28;20042;-63
2022/11/27 03:48:40;;;;;;;4.57;1.52;;;;;;;;;;5011820;28;20136;-65
2022/11/27 03:51:21;;;;;;;4.28;1.40;;;;;;;;;;5021511;28;20049;-62
2022/11/27 03:54:14;;;;;;;4.60;1.58;;;;;;;;;;5011554;28;20045;-63
2022/11/27 03:56:48;;;;;;;7.28;1.70;;;;;;;;;;5001107;28;20555;-64
2022/11/27 03:59:21;;;;;;;10.10;2.58;;;;;;;;;;5016428;28;20071;-68
2022/11/27 04:01:48;;;;;;;5.60;1.95;;;;;;;;;;5013580;28;20061;-61
2022/11/27 04:04:15;;;;;;;6.35;1.60;;;;;;;;;;5012879;28;20045;-61
2022/11/27 04:06:41;;;;;;;6.90;1.60;;;;;;;;;;5013774;28;21121;-60
2022/11/27 04:09:08;;;;;;;4.10;1.50;;;;;;;;;;5012023;28;20580;-63
2022/11/27 04:11:35;;;;;;;9.07;1.80;;;;;;;;;;5011803;28;20048;-63
2022/11/27 04:14:02;;;;;;;13.30;2.00;;;;;;;;;;5014032;28;20437;-65
2022/11/27 04:16:28;;;;;;;4.88;2.13;;;;;;;;;;5009448;28;20048;-64
2022/11/27 04:18:56;;;;;;;8.52;2.60;;;;;;;;;;5028860;28;20045;-63
2022/11/27 04:21:23;;;;;;;8.40;2.28;;;;;;;;;;5011470;28;20053;-63
2022/11/27 04:23:49;;;;;;;7.60;2.15;;;;;;;;;;5029615;28;20048;-63
2022/11/27 04:26:16;;;;;;;4.05;1.60;;;;;;;;;;5029318;28;20055;-65
2022/11/27 04:28:42;;;;;;;4.45;1.60;;;;;;;;;;5012018;28;20072;-64
2022/11/27 04:31:09;;;;;;;6.25;1.55;;;;;;;;;;5021469;28;20044;-64
2022/11/27 04:33:36;;;;;;;3.45;1.00;;;;;;;;;;5014355;28;20124;-62
2022/11/27 04:36:02;;;;;;;3.70;1.10;;;;;;;;;;5014038;28;20589;-64
2022/11/27 04:38:29;;;;;;;4.85;1.25;;;;;;;;;;5013738;28;20073;-62
2022/11/27 04:40:56;;;;;;;3.70;1.15;;;;;;;;;;5032552;28;20049;-62
2022/11/27 04:43:23;;;;;;;5.35;1.17;;;;;;;;;;5016556;28;21820;-60
2022/11/27 04:45:49;;;;;;;3.85;1.40;;;;;;;;;;5015514;28;20029;-63
2022/11/27 04:48:16;;;;;;;3.53;1.33;;;;;;;;;;5012033;28;20505;-66
2022/11/27 04:50:43;;;;;;;3.65;1.20;;;;;;;;;;5011945;28;20096;-63
2022/11/27 04:53:09;;;;;;;7.55;1.45;;;;;;;;;;5013529;28;20075;-63
2022/11/27 04:55:36;;;;;;;4.15;1.35;;;;;;;;;;5010286;28;20046;-62
2022/11/27 04:58:03;;;;;;;3.58;1.25;;;;;;;;;;5011101;28;20129;-62
2022/11/27 05:00:29;;;;;;;7.47;1.85;;;;;;;;;;5009011;28;20062;-64
2022/11/27 05:02:56;;;;;;;5.03;2.00;;;;;;;;;;5010225;28;20037;-62
2022/11/27 05:05:22;;;;;;;5.22;1.50;;;;;;;;;;5026915;28;20041;-64
2022/11/27 05:07:49;;;;;;;7.38;1.60;;;;;;;;;;5011191;28;20060;-63
2022/11/27 05:10:15;;;;;;;7.18;1.73;;;;;;;;;;5010839;28;20034;-63
2022/11/27 05:12:42;;;;;;;6.43;1.63;;;;;;;;;;5025142;28;20068;-62
2022/11/27 05:15:09;;;;;;;5.22;1.63;;;;;;;;;;5010175;28;20044;-60
2022/11/27 05:17:36;;;;;;;5.43;1.73;;;;;;;;;;5011010;28;20129;-63
2022/11/27 05:20:02;;;;;;;5.72;1.75;;;;;;;;;;5012638;28;20041;-63
2022/11/27 05:22:29;;;;;;;4.35;1.33;;;;;;;;;;5008849;28;20041;-63
2022/11/27 05:24:56;;;;;;;5.53;1.48;;;;;;;;;;5012267;28;20865;-62
2022/11/27 05:27:22;;;;;;;7.20;1.50;;;;;;;;;;5010828;28;20144;-61
2022/11/27 05:29:49;;;;;;;6.05;1.33;;;;;;;;;;5011017;28;20038;-63
2022/11/27 05:32:15;;;;;;;3.30;1.20;;;;;;;;;;5011086;28;20062;-62
2022/11/27 05:34:42;;;;;;;7.03;1.50;;;;;;;;;;5008883;28;20190;-63
2022/11/27 05:37:11;;;;;;;5.22;1.55;;;;;;;;;;5010792;28;20594;-65
2022/11/27 05:39:38;;;;;;;3.90;1.30;;;;;;;;;;5013213;28;20589;-63
2022/11/27 05:42:04;;;;;;;3.80;1.02;;;;;;;;;;5009158;28;21466;-63
2022/11/27 05:44:31;;;;;;;3.65;1.02;;;;;;;;;;5008706;28;20042;-62
2022/11/27 05:46:58;;;;;;;7.65;1.10;;;;;;;;;;5012120;28;20058;-64
2022/11/27 05:49:24;;;;;;;3.17;1.08;;;;;;;;;;5010803;28;20518;-64
2022/11/27 05:51:51;;;;;;;5.03;1.17;;;;;;;;;;5012236;28;20061;-64
2022/11/27 05:54:18;;;;;;;8.45;1.40;;;;;;;;;;5011329;28;20061;-63
2022/11/27 05:56:44;;;;;;;3.13;1.00;;;;;;;;;;5007934;28;20074;-64
2022/11/27 05:59:11;;;;;;;12.23;1.70;;;;;;;;;;5013471;28;20056;-63
2022/11/27 06:01:38;;;;;;;5.72;1.13;;;;;;;;;;5011440;28;20092;-65
2022/11/27 06:04:04;;;;;;;4.93;1.35;;;;;;;;;;5016445;28;20050;-64
2022/11/27 06:06:31;;;;;;;4.05;1.20;;;;;;;;;;5015078;28;20520;-64
2022/11/27 06:08:57;;;;;;;3.20;1.10;;;;;;;;;;5015593;28;20073;-65
2022/11/27 06:11:24;;;;;;;4.38;1.20;;;;;;;;;;5012485;28;21672;-64
2022/11/27 06:13:51;;;;;;;4.03;1.00;;;;;;;;;;5017108;28;20594;-64
2022/11/27 06:16:18;;;;;;;7.32;1.10;;;;;;;;;;5014226;28;20046;-64
2022/11/27 06:18:45;;;;;;;3.08;1.00;;;;;;;;;;5012970;28;20050;-63
2022/11/27 06:21:14;;;;;;;6.30;0.80;;;;;;;;;;5013030;28;20049;-64
2022/11/27 06:23:41;;;;;;;2.90;1.00;;;;;;;;;;5014707;28;20211;-64
2022/11/27 06:26:11;;;;;;;3.88;0.80;;;;;;;;;;5015141;28;20107;-63
2022/11/27 06:28:38;;;;;;;4.55;0.90;;;;;;;;;;5014511;28;20575;-64
2022/11/27 06:31:06;;;;;;;2.60;0.90;;;;;;;;;;5015526;28;20042;-63
2022/11/27 06:33:32;;;;;;;4.13;0.80;;;;;;;;;;5014491;28;20060;-63
2022/11/27 06:35:59;;;;;;;2.85;0.82;;;;;;;;;;5014505;28;20043;-64
2022/11/27 06:38:26;;;;;;;3.38;0.70;;;;;;;;;;5013654;28;20533;-62
2022/11/27 06:40:52;;;;;;;2.50;0.60;;;;;;;;;;5014350;28;20109;-61
2022/11/27 06:43:19;;;;;;;1.35;0.50;;;;;;;;;;5013308;28;20026;-64
2022/11/27 06:45:54;;;;;;;1.60;0.50;;;;;;;;;;5014998;28;20037;-63
2022/11/27 06:48:20;;;;;;;1.88;0.60;;;;;;;;;;5014250;28;20781;-61
2022/11/27 06:50:47;;;;;;;1.38;0.47;;;;;;;;;;5014687;28;20041;-63
2022/11/27 06:53:13;;;;;;;1.90;0.60;;;;;;;;;;5015120;28;20065;-63
2022/11/27 06:55:40;;;;;;;1.70;0.52;;;;;;;;;;5012087;28;20545;-62
2022/11/27 06:58:07;;;;;;;1.95;0.70;;;;;;;;;;5013096;28;20050;-63
2022/11/27 07:00:33;;;;;;;4.35;0.82;;;;;;;;;;5014863;28;20063;-66
2022/11/27 07:03:00;;;;;;;2.40;0.47;;;;;;;;;;5016904;28;20761;-64
2022/11/27 07:05:28;;;;;;;3.97;0.52;;;;;;;;;;5013693;28;20034;-64
2022/11/27 07:07:55;;;;;;;2.42;0.60;;;;;;;;;;5014330;28;20497;-66
2022/11/27 07:10:22;;;;;;;2.60;0.70;;;;;;;;;;5011600;28;20045;-64
2022/11/27 07:12:48;;;;;;;5.90;0.77;;;;;;;;;;5012607;28;20041;-64
2022/11/27 07:15:15;;;;;;;3.50;0.55;;;;;;;;;;5015516;28;20102;-64
2022/11/27 07:17:45;;;;;;;1.65;0.50;;;;;;;;;;5012271;28;20526;-64
2022/11/27 07:20:11;;;;;;;1.48;0.50;;;;;;;;;;5012632;28;20080;-62
2022/11/27 07:22:38;;;;;;;3.17;0.60;;;;;;;;;;5014572;28;20489;-64
2022/11/27 07:25:05;;;;;;;2.25;0.65;;;;;;;;;;5014907;28;20118;-62
2022/11/27 07:27:31;;;;;;;2.38;0.60;;;;;;;;;;5011149;28;20072;-63
2022/11/27 07:29:58;;;;;;;6.18;0.68;;;;;;;;;;5013039;28;20046;-65
2022/11/27 07:32:24;;;;;;;1.70;0.50;;;;;;;;;;5014007;28;20049;-64
2022/11/27 07:34:51;;;;;;;1.50;0.50;;;;;;;;;;5015502;28;20034;-62
2022/11/27 07:37:18;;;;;;;1.73;0.63;;;;;;;;;;5015920;28;20052;-67
2022/11/27 07:39:44;;;;;;;2.20;0.82;;;;;;;;;;5014457;28;20109;-63
2022/11/27 07:42:11;;;;;;;1.45;0.52;;;;;;;;;;5029042;28;20061;-64
2022/11/27 07:44:37;;;;;;;1.90;0.50;;;;;;;;;;5015176;28;20046;-64
2022/11/27 07:47:04;;;;;;;2.20;0.60;;;;;;;;;;5013080;28;20041;-64
2022/11/27 07:49:31;;;;;;;2.55;0.60;;;;;;;;;;5013566;28;20045;-63
2022/11/27 07:51:57;;;;;;;3.28;0.70;;;;;;;;;;5015391;28;20512;-64
2022/11/27 07:54:24;;;;;;;3.05;0.60;;;;;;;;;;5011952;28;20046;-64
2022/11/27 07:56:50;;;;;;;2.92;0.50;;;;;;;;;;5014487;28;20045;-63
2022/11/27 07:59:17;;;;;;;1.92;0.55;;;;;;;;;;5028165;28;20064;-63
2022/11/27 08:01:43;;;;;;;2.30;0.70;;;;;;;;;;5011059;28;20045;-62
2022/11/27 08:04:10;;;;;;;2.80;0.60;;;;;;;;;;5013797;28;20037;-63
2022/11/27 08:06:37;;;;;;;2.00;0.57;;;;;;;;;;5013730;28;20913;-63
2022/11/27 08:09:03;;;;;;;2.10;0.70;;;;;;;;;;5027893;28;20053;-63
2022/11/27 08:11:34;;;;;;;4.32;0.70;;;;;;;;;;5013033;28;20058;-64
2022/11/27 08:14:05;;;;;;;3.28;0.60;;;;;;;;;;5014198;28;20063;-64
2022/11/27 08:16:33;;;;;;;1.25;0.43;;;;;;;;;;5013213;28;20068;-63
2022/11/27 08:18:59;;;;;;;2.85;0.50;;;;;;;;;;5011972;28;20053;-63
2022/11/27 08:21:27;;;;;;;2.38;0.60;;;;;;;;;;5011657;28;20572;-62
2022/11/27 08:23:53;;;;;;;3.63;0.50;;;;;;;;;;5011705;28;20124;-65
2022/11/27 08:26:20;;;;;;;1.48;0.50;;;;;;;;;;5011683;28;20045;-63
2022/11/27 08:28:47;;;;;;;1.95;0.52;;;;;;;;;;5014015;28;20188;-63
2022/11/27 08:31:14;;;;;;;1.83;0.50;;;;;;;;;;5015118;28;20108;-64
2022/11/27 08:33:41;;;;;;;1.60;0.50;;;;;;;;;;5012739;28;20822;-62
2022/11/27 08:36:08;;;;;;;1.77;0.50;;;;;;;;;;5026766;28;20048;-61
2022/11/27 08:38:34;;;;;;;1.85;0.45;;;;;;;;;;5010894;28;20108;-63
2022/11/27 08:41:02;;;;;;;3.05;0.63;;;;;;;;;;5011384;28;20152;-63
2022/11/27 08:43:29;;;;;;;1.33;0.50;;;;;;;;;;5012318;28;20040;-63
2022/11/27 08:45:56;;;;;;;2.25;0.50;;;;;;;;;;5013909;28;20091;-64
2022/11/27 08:48:23;;;;;;;1.55;0.52;;;;;;;;;;5012501;28;20319;-65
2022/11/27 08:50:50;;;;;;;1.35;0.60;;;;;;;;;;5012652;28;20435;-63
2022/11/27 08:53:16;;;;;;;2.15;0.57;;;;;;;;;;5013816;28;20045;-64
2022/11/27 08:55:43;;;;;;;2.03;0.50;;;;;;;;;;5012124;28;20030;-64
2022/11/27 08:58:10;;;;;;;2.13;0.52;;;;;;;;;;5009902;28;20041;-63
2022/11/27 09:00:37;;;;;;;4.47;0.60;;;;;;;;;;5011698;28;20054;-63
2022/11/27 09:03:04;;;;;;;2.00;0.50;;;;;;;;;;5012183;28;20046;-63
2022/11/27 09:05:31;;;;;;;1.73;0.50;;;;;;;;;;5010260;28;20414;-63
2022/11/27 09:08:01;;;;;;;2.88;0.40;;;;;;;;;;5012681;28;20744;-64
2022/11/27 09:10:27;;;;;;;1.55;0.50;;;;;;;;;;5012121;28;20040;-65
2022/11/27 09:12:55;;;;;;;0.88;0.45;;;;;;;;;;5010007;28;20127;-63
2022/11/27 09:15:22;;;;;;;3.83;0.47;;;;;;;;;;5014533;28;20038;-64
2022/11/27 09:17:48;;;;;;;2.13;0.60;;;;;;;;;;5011822;28;20047;-63
2022/11/27 09:20:15;;;;;;;2.63;0.57;;;;;;;;;;5009859;28;20046;-64
2022/11/27 09:22:42;;;;;;;2.28;0.60;;;;;;;;;;5018324;28;20038;-64
2022/11/27 09:25:09;;;;;;;2.35;0.50;;;;;;;;;;5012626;28;20410;-64
2022/11/27 09:27:36;;;;;;;1.73;0.60;;;;;;;;;;5010575;28;20033;-65
2022/11/27 09:30:03;;;;;;;2.63;0.60;;;;;;;;;;5013164;28;20054;-64
2022/11/27 09:32:29;;;;;;;1.92;0.50;;;;;;;;;;5013237;28;20073;-62
2022/11/27 09:34:56;;;;;;;2.35;0.60;;;;;;;;;;5012189;28;20034;-63
2022/11/27 09:37:23;;;;;;;1.83;0.60;;;;;;;;;;5011799;28;20042;-63
2022/11/27 09:39:49;;;;;;;1.65;0.60;;;;;;;;;;5014988;28;20842;-63
2022/11/27 09:42:24;;;;;;;2.42;0.80;;;;;;;;;;5015070;28;20096;-63
2022/11/27 09:44:56;;;;;;;1.73;0.65;;;;;;;;;;5017097;28;20111;-63
2022/11/27 09:47:29;;;;;;;2.58;0.73;;;;;;;;;;5014771;28;20179;-62
2022/11/27 09:50:01;;;;;;;2.07;0.70;;;;;;;;;;5015941;28;20049;-65
2022/11/27 09:52:27;;;;;;;3.78;0.70;;;;;;;;;;5014493;28;20523;-64
2022/11/27 09:55:26;;;;;;;5.35;0.93;;;;;;;;;;5017243;28;20634;-64
2022/11/27 09:57:58;;;;;;;2.28;0.60;;;;;;;;;;4980141;28;20137;-63
2022/11/27 10:00:25;;;;;;;1.95;0.60;;;;;;;;;;5013505;28;20041;-65
2022/11/27 10:02:52;;;;;;;2.28;0.52;;;;;;;;;;5014454;28;20042;-63
2022/11/27 10:05:45;;;;;;;1.73;0.60;;;;;;;;;;5017321;28;20045;-63
2022/11/27 10:08:14;;;;;;;8.20;0.82;;;;;;;;;;5013839;28;20037;-65
2022/11/27 10:10:45;;;;;;;3.50;0.70;;;;;;;;;;5013274;28;20041;-64
2022/11/27 10:13:21;;;;;;;1.88;0.70;;;;;;;;;;5016138;28;20036;-63
2022/11/27 10:16:03;;;;;;;1.85;0.60;;;;;;;;;;5029399;28;20042;-64
2022/11/27 10:18:30;;;;;;;1.52;0.57;;;;;;;;;;5016187;28;20057;-64
2022/11/27 10:21:09;;;;;;;1.55;0.45;;;;;;;;;;5024759;28;20084;-63
2022/11/27 10:23:36;;;;;;;1.95;0.50;;;;;;;;;;5014208;28;20480;-64
2022/11/27 10:26:06;;;;;;;2.28;0.60;;;;;;;;;;5017761;28;20108;-64
2022/11/27 10:28:41;;;;;;;2.50;0.50;;;;;;;;;;5030333;28;20049;-63
2022/11/27 10:31:18;;;;;;;3.90;0.50;;;;;;;;;;5018198;28;20045;-64
2022/11/27 10:33:47;;;;;;;1.10;0.43;;;;;;;;;;5015872;28;20053;-63
2022/11/27 10:36:20;;;;;;;3.88;0.50;;;;;;;;;;5020034;28;20192;-61
2022/11/27 10:38:47;;;;;;;1.17;0.40;;;;;;;;;;5016731;28;20514;-62
2022/11/27 10:41:19;;;;;;;2.17;0.50;;;;;;;;;;5031148;28;20058;-62
2022/11/27 10:43:47;;;;;;;1.15;0.40;;;;;;;;;;5013588;28;20088;-64
2022/11/27 10:46:16;;;;;;;2.00;0.60;;;;;;;;;;5014122;28;21677;-63
2022/11/27 10:48:43;;;;;;;1.30;0.50;;;;;;;;;;5015003;28;20092;-64
2022/11/27 10:51:21;;;;;;;1.38;0.40;;;;;;;;;;5015179;28;20037;-64
2022/11/27 10:53:50;;;;;;;1.15;0.35;;;;;;;;;;5013391;28;20482;-64
2022/11/27 10:56:29;;;;;;;1.25;0.50;;;;;;;;;;5016597;28;20494;-64
2022/11/27 10:58:59;;;;;;;1.63;0.40;;;;;;;;;;5010569;28;20859;-64
2022/11/27 11:01:28;;;;;;;1.30;0.50;;;;;;;;;;5014097;28;20054;-64
2022/11/27 11:04:07;;;;;;;1.02;0.40;;;;;;;;;;5014238;28;20046;-63
2022/11/27 11:06:38;;;;;;;0.73;0.35;;;;;;;;;;5011951;28;20044;-68
2022/11/27 11:09:17;;;;;;;1.83;0.50;;;;;;;;;;5014187;28;20038;-64
2022/11/27 11:11:44;;;;;;;1.17;0.40;;;;;;;;;;5014835;28;20033;-63
2022/11/27 11:14:18;;;;;;;0.95;0.40;;;;;;;;;;5013139;28;20030;-63
2022/11/27 11:16:45;;;;;;;1.23;0.38;;;;;;;;;;5012602;28;20507;-63
2022/11/27 11:19:31;;;;;;;1.35;0.40;;;;;;;;;;5013335;28;20037;-61
2022/11/27 11:21:59;;;;;;;4.10;0.50;;;;;;;;;;5013036;28;20056;-62
2022/11/27 11:24:29;;;;;;;1.25;0.40;;;;;;;;;;5012792;28;20543;-62
2022/11/27 11:26:57;;;;;;;2.33;0.60;;;;;;;;;;5013118;28;20042;-64
2022/11/27 11:29:33;;;;;;;1.02;0.40;;;;;;;;;;5028939;28;20083;-62
2022/11/27 11:32:05;;;;;;;3.53;0.68;;;;;;;;;;5014095;28;20406;-68
2022/11/27 11:34:32;;;;;;;3.95;0.60;;;;;;;;;;5014044;28;20206;-63
2022/11/27 11:37:01;;;;;;;2.60;0.60;;;;;;;;;;5014351;28;20048;-64
2022/11/27 11:39:32;;;;;;;3.53;0.43;;;;;;;;;;5009235;28;20042;-62
2022/11/27 11:41:59;;;;;;;1.65;0.40;;;;;;;;;;5013437;28;20053;-65
2022/11/27 11:44:32;;;;;;;1.67;0.40;;;;;;;;;;5013310;28;20033;-63
2022/11/27 11:46:59;;;;;;;2.80;0.80;;;;;;;;;;5014721;28;20061;-61
2022/11/27 11:49:27;;;;;;;1.02;0.40;;;;;;;;;;5011404;28;20033;-63
2022/11/27 11:51:56;;;;;;;0.55;0.30;;;;;;;;;;5014511;28;20080;-62
2022/11/27 11:54:29;;;;;;;1.20;0.40;;;;;;;;;;5013373;28;20034;-62
2022/11/27 11:56:58;;;;;;;1.38;0.40;;;;;;;;;;5018738;28;20131;-64
2022/11/27 11:59:27;;;;;;;1.27;0.40;;;;;;;;;;5011732;28;20534;-61
2022/11/27 12:02:06;;;;;;;0.60;0.30;;;;;;;;;;5013865;28;22346;-63
2022/11/27 12:04:32;;;;;;;1.33;0.50;;;;;;;;;;5013187;28;20083;-63
2022/11/27 12:07:08;;;;;;;2.10;0.50;;;;;;;;;;5012557;28;20817;-61
2022/11/27 12:09:34;;;;;;;1.30;0.40;;;;;;;;;;5019607;28;20064;-63
2022/11/27 12:12:07;;;;;;;2.20;0.50;;;;;;;;;;5013575;28;20045;-63
2022/11/27 12:15:06;;;;;;;0.98;0.40;;;;;;;;;;5011025;28;20529;-62
2022/11/27 12:17:42;;;;;;;2.35;0.45;;;;;;;;;;5009790;28;20052;-63
2022/11/27 12:20:20;;;;;;;1.17;0.40;;;;;;;;;;5012283;28;20064;-63
2022/11/27 12:22:50;;;;;;;1.42;0.50;;;;;;;;;;5020775;28;20041;-62
2022/11/27 12:25:33;;;;;;;4.00;0.50;;;;;;;;;;5006519;28;20064;-63
2022/11/27 12:28:08;;;;;;;0.80;0.30;;;;;;;;;;5024874;28;20037;-63
2022/11/27 12:30:44;;;;;;;1.40;0.45;;;;;;;;;;5042653;28;20057;-64
2022/11/27 12:33:20;;;;;;;1.25;0.43;;;;;;;;;;5034125;28;20440;-62
2022/11/27 12:36:01;;;;;;;0.88;0.40;;;;;;;;;;5025738;28;20144;-64
2022/11/27 12:38:39;;;;;;;0.95;0.40;;;;;;;;;;5034202;28;20103;-64
2022/11/27 12:41:06;;;;;;;1.58;0.40;;;;;;;;;;5040279;28;20111;-64
2022/11/27 12:43:37;;;;;;;1.48;0.40;;;;;;;;;;5030129;28;20037;-63
2022/11/27 12:46:09;;;;;;;3.03;0.40;;;;;;;;;;5032767;28;20110;-64
2022/11/27 12:48:41;;;;;;;4.45;0.55;;;;;;;;;;5031477;28;20037;-63
2022/11/27 12:51:28;;;;;;;0.55;0.35;;;;;;;;;;5030721;28;20056;-64
2022/11/27 12:54:15;;;;;;;0.55;0.30;;;;;;;;;;5030192;28;20040;-64
2022/11/27 12:56:49;;;;;;;1.08;0.40;;;;;;;;;;5048197;28;20224;-65
2022/11/27 12:59:21;;;;;;;1.10;0.40;;;;;;;;;;5031832;28;20065;-66
2022/11/27 13:01:53;;;;;;;0.50;0.30;;;;;;;;;;5013780;28;20475;-63
2022/11/27 13:04:24;;;;;;;0.70;0.30;;;;;;;;;;5013542;28;20044;-62
2022/11/27 13:07:09;;;;;;;0.55;0.30;;;;;;;;;;5014220;28;20148;-62
2022/11/27 13:09:54;;;;;;;1.05;0.40;;;;;;;;;;5011014;28;20051;-62
2022/11/27 13:12:24;;;;;;;0.95;0.35;;;;;;;;;;5012310;28;20413;-62
2022/11/27 13:14:54;;;;;;;1.00;0.40;;;;;;;;;;5028126;28;20034;-61
2022/11/27 13:17:21;;;;;;;0.75;0.40;;;;;;;;;;5012271;28;20049;-63
2022/11/27 13:19:49;;;;;;;1.27;0.40;;;;;;;;;;5012128;28;20071;-63
2022/11/27 13:22:20;;;;;;;0.65;0.30;;;;;;;;;;5011360;28;20064;-62
2022/11/27 13:24:47;;;;;;;0.68;0.30;;;;;;;;;;5025486;28;20053;-64
2022/11/27 13:27:15;;;;;;;1.65;0.43;;;;;;;;;;5010674;28;20045;-64
2022/11/27 13:29:56;;;;;;;0.80;0.40;;;;;;;;;;5027493;28;20033;-63
2022/11/27 13:32:27;;;;;;;1.00;0.30;;;;;;;;;;5012997;28;20160;-62
2022/11/27 13:34:55;;;;;;;0.98;0.40;;;;;;;;;;5014408;28;20029;-64
2022/11/27 13:37:25;;;;;;;2.35;0.40;;;;;;;;;;5015208;28;20091;-62
2022/11/27 13:39:58;;;;;;;1.42;0.40;;;;;;;;;;5012235;28;20037;-62
2022/11/27 13:42:27;;;;;;;0.82;0.40;;;;;;;;;;5012412;28;20046;-62
2022/11/27 13:44:56;;;;;;;1.15;0.32;;;;;;;;;;5020479;28;20067;-62
2022/11/27 13:47:24;;;;;;;0.57;0.30;;;;;;;;;;5026820;28;20043;-64
2022/11/27 13:50:06;;;;;;;5.05;0.60;;;;;;;;;;5009542;28;20416;-62
2022/11/27 13:52:33;;;;;;;0.93;0.40;;;;;;;;;;5010390;28;20103;-64
2022/11/27 13:55:01;;;;;;;6.10;0.70;;;;;;;;;;5010067;28;20045;-64
2022/11/27 13:57:29;;;;;;;0.60;0.30;;;;;;;;;;5015264;28;20099;-62
2022/11/27 14:00:00;;;;;;;4.30;0.52;;;;;;;;;;5012295;28;20088;-61
2022/11/27 14:02:45;;;;;;;1.17;0.40;;;;;;;;;;5028130;28;20049;-62
2022/11/27 14:05:13;;;;;;;2.80;0.40;;;;;;;;;;5013570;28;20874;-63
2022/11/27 14:07:41;;;;;;;2.08;0.40;;;;;;;;;;5012364;28;20455;-64
2022/11/27 14:10:18;;;;;;;0.75;0.40;;;;;;;;;;5019064;28;20044;-63
2022/11/27 14:13:03;;;;;;;3.72;0.50;;;;;;;;;;5011560;28;20116;-64
2022/11/27 14:15:31;;;;;;;0.63;0.30;;;;;;;;;;5010979;28;20041;-63
2022/11/27 14:18:10;;;;;;;1.33;0.40;;;;;;;;;;5012236;28;20056;-64
2022/11/27 14:20:45;;;;;;;1.08;0.40;;;;;;;;;;5025616;28;20056;-65
2022/11/27 14:23:11;;;;;;;1.08;0.40;;;;;;;;;;5023869;28;20144;-65
2022/11/27 14:25:38;;;;;;;1.45;0.60;;;;;;;;;;5018309;28;20111;-62
2022/11/27 14:28:23;;;;;;;1.67;0.50;;;;;;;;;;5015702;28;20132;-66
2022/11/27 14:30:51;;;;;;;1.70;0.40;;;;;;;;;;5013421;28;20092;-63
2022/11/27 14:33:23;;;;;;;0.93;0.40;;;;;;;;;;5014074;28;20088;-66
2022/11/27 14:35:51;;;;;;;0.75;0.35;;;;;;;;;;5013309;28;20068;-64
2022/11/27 14:38:18;;;;;;;5.70;1.10;;;;;;;;;;5018698;28;20099;-68
2022/11/27 14:40:45;;;;;;;1.23;0.40;;;;;;;;;;5011780;28;20045;-63
2022/11/27 14:43:37;;;;;;;2.60;0.40;;;;;;;;;;5013494;28;20045;-64
2022/11/27 14:46:05;;;;;;;1.05;0.40;;;;;;;;;;5010239;28;20076;-64
2022/11/27 14:48:40;;;;;;;0.70;0.30;;;;;;;;;;5011760;28;20060;-67
2022/11/27 14:51:09;;;;;;;1.13;0.40;;;;;;;;;;5012131;28;20224;-63
2022/11/27 14:53:36;;;;;;;1.42;0.50;;;;;;;;;;5012500;28;20042;-63
2022/11/27 14:56:03;;;;;;;1.73;0.55;;;;;;;;;;5012818;28;20042;-64